sensor_id;sensor_type;location;lat;lon;timestamp;pressure;altitude;pressure_sealevel;temperature;humidity
33404;BME280;19751;40.274;18.268;2022-11-06T00:00:42;100049.81;;;14.62;100.00
33404;BME280;19751;40.274;18.268;2022-11-06T00:03:08;100044.97;;;14.52;100.00
33404;BME280;19751;40.274;18.268;2022-11-06T00:05:37;100046.47;;;14.48;100.00
33404;BME280;19751;40.274;18.268;2022-11-06T00:08:40;100049.38;;;14.47;100.00
33404;BME280;19751;40.274;18.268;2022-11-06T00:11:13;100045.44;;;14.49;100.00
33404;BME280;19751;40.274;18.268;2022-11-06T00:13:40;100050.97;;;14.54;100.00
33404;BME280;19751;40.274;18.268;2022-11-06T00:16:08;100048.38;;;14.59;100.00
33404;BME280;19751;40.274;18.268;2022-11-06T00:18:35;100061.03;;;14.65;100.00
33404;BME280;19751;40.274;18.268;2022-11-06T00:21:08;100063.16;;;14.75;100.00
33404;BME280;19751;40.274;18.268;2022-11-06T00:23:34;100060.94;;;14.84;100.00
33404;BME280;19751;40.274;18.268;2022-11-06T00:26:00;100048.56;;;14.88;100.00
33404;BME280;19751;40.274;18.268;2022-11-06T00:28:28;100046.66;;;14.88;100.00
33404;BME280;19751;40.274;18.268;2022-11-06T00:31:15;100047.03;;;14.92;100.00
33404;BME280;19751;40.274;18.268;2022-11-06T00:33:41;100039.72;;;14.92;100.00
33404;BME280;19751;40.274;18.268;2022-11-06T00:36:09;100041.59;;;14.92;100.00
33404;BME280;19751;40.274;18.268;2022-11-06T00:38:36;100038.69;;;14.94;100.00
33404;BME280;19751;40.274;18.268;2022-11-06T00:41:06;100043.03;;;14.95;100.00
33404;BME280;19751;40.274;18.268;2022-11-06T00:43:32;100053.28;;;14.92;100.00
33404;BME280;19751;40.274;18.268;2022-11-06T00:46:11;100054.69;;;14.95;100.00
33404;BME280;19751;40.274;18.268;2022-11-06T00:48:38;100055.53;;;14.96;100.00
33404;BME280;19751;40.274;18.268;2022-11-06T00:53:33;100064.94;;;14.81;100.00
33404;BME280;19751;40.274;18.268;2022-11-06T00:56:28;100065.16;;;14.68;100.00
33404;BME280;19751;40.274;18.268;2022-11-06T00:58:54;100069.03;;;14.60;100.00
33404;BME280;19751;40.274;18.268;2022-11-06T01:01:26;100081.59;;;14.55;100.00
33404;BME280;19751;40.274;18.268;2022-11-06T01:04:06;100084.81;;;14.52;100.00
33404;BME280;19751;40.274;18.268;2022-11-06T01:06:35;100096.91;;;14.49;100.00
33404;BME280;19751;40.274;18.268;2022-11-06T01:09:01;100097.88;;;14.55;100.00
33404;BME280;19751;40.274;18.268;2022-11-06T01:11:32;100095.91;;;14.62;100.00
33404;BME280;19751;40.274;18.268;2022-11-06T01:14:00;100088.72;;;14.67;100.00
33404;BME280;19751;40.274;18.268;2022-11-06T01:16:26;100080.94;;;14.71;100.00
33404;BME280;19751;40.274;18.268;2022-11-06T01:18:53;100086.97;;;14.73;100.00
33404;BME280;19751;40.274;18.268;2022-11-06T01:21:25;100093.22;;;14.74;100.00
33404;BME280;19751;40.274;18.268;2022-11-06T01:23:59;100092.16;;;14.75;100.00
33404;BME280;19751;40.274;18.268;2022-11-06T01:26:26;100092.97;;;14.75;100.00
33404;BME280;19751;40.274;18.268;2022-11-06T01:28:53;100093.22;;;14.74;100.00
33404;BME280;19751;40.274;18.268;2022-11-06T01:31:22;100094.28;;;14.73;100.00
33404;BME280;19751;40.274;18.268;2022-11-06T01:33:48;100094.75;;;14.70;100.00
33404;BME280;19751;40.274;18.268;2022-11-06T01:36:15;100094.75;;;14.70;100.00
33404;BME280;19751;40.274;18.268;2022-11-06T01:38:43;100086.97;;;14.73;100.00
33404;BME280;19751;40.274;18.268;2022-11-06T01:41:12;100084.38;;;14.78;100.00
33404;BME280;19751;40.274;18.268;2022-11-06T01:44:05;100093.25;;;14.85;100.00
33404;BME280;19751;40.274;18.268;2022-11-06T01:46:34;100084.88;;;14.87;100.00
33404;BME280;19751;40.274;18.268;2022-11-06T01:49:06;100078.00;;;14.84;100.00
33404;BME280;19751;40.274;18.268;2022-11-06T01:51:38;100083.44;;;14.84;100.00
33404;BME280;19751;40.274;18.268;2022-11-06T01:54:05;100080.72;;;14.84;100.00
33404;BME280;19751;40.274;18.268;2022-11-06T01:56:32;100081.69;;;14.90;100.00
33404;BME280;19751;40.274;18.268;2022-11-06T01:58:58;100079.19;;;14.88;100.00
33404;BME280;19751;40.274;18.268;2022-11-06T02:01:24;100080.28;;;14.87;100.00
33404;BME280;19751;40.274;18.268;2022-11-06T02:04:03;100091.13;;;14.87;100.00
33404;BME280;19751;40.274;18.268;2022-11-06T02:06:30;100088.41;;;14.87;100.00
33404;BME280;19751;40.274;18.268;2022-11-06T02:08:56;100096.91;;;14.91;100.00
33404;BME280;19751;40.274;18.268;2022-11-06T02:11:22;100098.53;;;14.92;100.00
33404;BME280;19751;40.274;18.268;2022-11-06T02:13:51;100106.94;;;14.90;100.00
33404;BME280;19751;40.274;18.268;2022-11-06T02:16:35;100102.19;;;14.86;100.00
33404;BME280;19751;40.274;18.268;2022-11-06T02:30:07;100103.25;;;14.73;100.00
33404;BME280;19751;40.274;18.268;2022-11-06T02:32:54;100106.06;;;14.78;100.00
33404;BME280;19751;40.274;18.268;2022-11-06T02:36:14;100105.38;;;14.83;100.00
33404;BME280;19751;40.274;18.268;2022-11-06T02:38:27;100105.75;;;14.86;100.00
33404;BME280;19751;40.274;18.268;2022-11-06T02:40:59;100116.13;;;14.89;100.00
33404;BME280;19751;40.274;18.268;2022-11-06T02:43:36;100111.53;;;14.90;100.00
33404;BME280;19751;40.274;18.268;2022-11-06T02:46:11;100100.06;;;14.88;100.00
33404;BME280;19751;40.274;18.268;2022-11-06T02:48:51;100104.31;;;14.84;100.00
33404;BME280;19751;40.274;18.268;2022-11-06T02:51:22;100103.72;;;14.82;100.00
33404;BME280;19751;40.274;18.268;2022-11-06T02:53:50;100097.94;;;14.78;100.00
33404;BME280;19751;40.274;18.268;2022-11-06T02:56:21;100101.94;;;14.76;100.00
33404;BME280;19751;40.274;18.268;2022-11-06T03:01:33;100101.34;;;14.74;100.00
33404;BME280;19751;40.274;18.268;2022-11-06T03:07:10;100093.88;;;14.57;100.00
33404;BME280;19751;40.274;18.268;2022-11-06T03:09:39;100108.13;;;14.53;100.00
33404;BME280;19751;40.274;18.268;2022-11-06T03:22:32;100128.66;;;14.72;100.00
33404;BME280;19751;40.274;18.268;2022-11-06T03:25:20;100133.88;;;14.74;100.00
33404;BME280;19751;40.274;18.268;2022-11-06T03:28:07;100136.13;;;14.77;100.00
33404;BME280;19751;40.274;18.268;2022-11-06T03:30:38;100135.06;;;14.78;100.00
33404;BME280;19751;40.274;18.268;2022-11-06T03:33:18;100131.75;;;14.76;100.00
33404;BME280;19751;40.274;18.268;2022-11-06T03:36:13;100129.03;;;14.76;100.00
33404;BME280;19751;40.274;18.268;2022-11-06T03:38:43;100134.00;;;14.79;100.00
33404;BME280;19751;40.274;18.268;2022-11-06T03:41:23;100133.19;;;14.78;100.00
33404;BME280;19751;40.274;18.268;2022-11-06T03:43:51;100140.69;;;14.76;100.00
33404;BME280;19751;40.274;18.268;2022-11-06T03:46:19;100142.84;;;14.74;100.00
33404;BME280;19751;40.274;18.268;2022-11-06T03:48:56;100146.63;;;14.73;100.00
33404;BME280;19751;40.274;18.268;2022-11-06T03:54:15;100149.19;;;14.68;100.00
33404;BME280;19751;40.274;18.268;2022-11-06T03:56:51;100136.31;;;14.63;100.00
33404;BME280;19751;40.274;18.268;2022-11-06T03:59:20;100150.34;;;14.60;100.00
33404;BME280;19751;40.274;18.268;2022-11-06T04:01:52;100147.47;;;14.55;100.00
33404;BME280;19751;40.274;18.268;2022-11-06T04:06:55;100158.19;;;14.50;100.00
33404;BME280;19751;40.274;18.268;2022-11-06T04:09:25;100164.88;;;14.48;100.00
33404;BME280;19751;40.274;18.268;2022-11-06T04:12:13;100158.25;;;14.43;100.00
33404;BME280;19751;40.274;18.268;2022-11-06T04:14:59;100155.31;;;14.45;100.00
33404;BME280;19751;40.274;18.268;2022-11-06T04:17:27;100157.19;;;14.45;100.00
33404;BME280;19751;40.274;18.268;2022-11-06T04:20:01;100162.63;;;14.45;100.00
33404;BME280;19751;40.274;18.268;2022-11-06T04:22:54;100159.66;;;14.46;100.00
33404;BME280;19751;40.274;18.268;2022-11-06T04:25:48;100165.09;;;14.46;100.00
33404;BME280;19751;40.274;18.268;2022-11-06T04:28:47;100165.09;;;14.46;100.00
33404;BME280;19751;40.274;18.268;2022-11-06T04:31:33;100160.50;;;14.47;100.00
33404;BME280;19751;40.274;18.268;2022-11-06T04:34:08;100165.91;;;14.47;100.00
33404;BME280;19751;40.274;18.268;2022-11-06T04:36:51;100162.63;;;14.45;100.00
33404;BME280;19751;40.274;18.268;2022-11-06T04:39:41;100177.06;;;14.38;100.00
33404;BME280;19751;40.274;18.268;2022-11-06T04:42:27;100173.16;;;14.34;100.00
33404;BME280;19751;40.274;18.268;2022-11-06T04:45:09;100181.75;;;14.31;100.00
33404;BME280;19751;40.274;18.268;2022-11-06T04:47:37;100187.19;;;14.31;100.00
33404;BME280;19751;40.274;18.268;2022-11-06T04:50:05;100190.47;;;14.33;100.00
33404;BME280;19751;40.274;18.268;2022-11-06T04:52:32;100184.22;;;14.33;100.00
33404;BME280;19751;40.274;18.268;2022-11-06T04:54:59;100189.88;;;14.31;100.00
33404;BME280;19751;40.274;18.268;2022-11-06T04:57:25;100188.00;;;14.32;100.00
33404;BME280;19751;40.274;18.268;2022-11-06T04:59:50;100199.91;;;14.31;100.00
33404;BME280;19751;40.274;18.268;2022-11-06T05:02:16;100202.22;;;14.27;100.00
33404;BME280;19751;40.274;18.268;2022-11-06T05:04:41;100209.75;;;14.25;100.00
33404;BME280;19751;40.274;18.268;2022-11-06T05:07:08;100213.13;;;14.21;100.00
33404;BME280;19751;40.274;18.268;2022-11-06T05:09:36;100217.97;;;14.18;100.00
33404;BME280;19751;40.274;18.268;2022-11-06T05:12:01;100231.69;;;14.17;100.00
33404;BME280;19751;40.274;18.268;2022-11-06T05:14:27;100234.66;;;14.15;100.00
33404;BME280;19751;40.274;18.268;2022-11-06T05:16:52;100228.22;;;14.10;100.00
33404;BME280;19751;40.274;18.268;2022-11-06T05:19:18;100238.34;;;14.03;100.00
33404;BME280;19751;40.274;18.268;2022-11-06T05:21:43;100237.31;;;13.97;100.00
33404;BME280;19751;40.274;18.268;2022-11-06T05:24:27;100248.63;;;13.94;100.00
33404;BME280;19751;40.274;18.268;2022-11-06T05:26:53;100251.53;;;13.92;100.00
33404;BME280;19751;40.274;18.268;2022-11-06T05:29:19;100254.47;;;13.91;100.00
33404;BME280;19751;40.274;18.268;2022-11-06T05:31:44;100253.66;;;13.90;100.00
33404;BME280;19751;40.274;18.268;2022-11-06T05:34:10;100255.53;;;13.90;100.00
33404;BME280;19751;40.274;18.268;2022-11-06T05:36:35;100266.56;;;13.88;100.00
33404;BME280;19751;40.274;18.268;2022-11-06T05:39:01;100269.28;;;13.88;100.00
33404;BME280;19751;40.274;18.268;2022-11-06T05:41:26;100262.22;;;13.87;100.00
33404;BME280;19751;40.274;18.268;2022-11-06T05:43:52;100273.88;;;13.88;100.00
33404;BME280;19751;40.274;18.268;2022-11-06T05:46:17;100280.09;;;13.88;100.00
33404;BME280;19751;40.274;18.268;2022-11-06T05:48:43;100286.81;;;13.86;100.00
33404;BME280;19751;40.274;18.268;2022-11-06T05:51:09;100294.31;;;13.84;100.00
33404;BME280;19751;40.274;18.268;2022-11-06T05:53:35;100291.59;;;13.84;100.00
33404;BME280;19751;40.274;18.268;2022-11-06T05:56:02;100287.00;;;13.84;100.00
33404;BME280;19751;40.274;18.268;2022-11-06T05:58:28;100289.06;;;13.89;100.00
33404;BME280;19751;40.274;18.268;2022-11-06T06:00:54;100290.50;;;13.91;100.00
33404;BME280;19751;40.274;18.268;2022-11-06T06:03:20;100295.47;;;13.95;100.00
33404;BME280;19751;40.274;18.268;2022-11-06T06:05:46;100301.72;;;13.95;100.00
33404;BME280;19751;40.274;18.268;2022-11-06T06:08:11;100308.78;;;13.96;100.00
33404;BME280;19751;40.274;18.268;2022-11-06T06:10:41;100317.53;;;13.98;100.00
33404;BME280;19751;40.274;18.268;2022-11-06T06:13:07;100311.28;;;13.98;100.00
33404;BME280;19751;40.274;18.268;2022-11-06T06:15:32;100304.59;;;14.00;100.00
33404;BME280;19751;40.274;18.268;2022-11-06T06:17:58;100317.06;;;14.01;100.00
33404;BME280;19751;40.274;18.268;2022-11-06T06:20:23;100315.03;;;13.97;100.00
33404;BME280;19751;40.274;18.268;2022-11-06T06:22:56;100314.28;;;13.89;100.00
33404;BME280;19751;40.274;18.268;2022-11-06T06:25:26;100302.66;;;13.82;100.00
33404;BME280;19751;40.274;18.268;2022-11-06T06:27:52;100310.63;;;13.77;100.00
33404;BME280;19751;40.274;18.268;2022-11-06T06:30:18;100309.19;;;13.75;100.00
33404;BME280;19751;40.274;18.268;2022-11-06T06:32:45;100316.91;;;13.71;100.00
33404;BME280;19751;40.274;18.268;2022-11-06T06:35:10;100322.94;;;13.73;100.00
33404;BME280;19751;40.274;18.268;2022-11-06T06:37:36;100330.78;;;13.81;100.00
33404;BME280;19751;40.274;18.268;2022-11-06T06:40:02;100337.34;;;13.92;100.00
33404;BME280;19751;40.274;18.268;2022-11-06T06:42:28;100342.88;;;14.04;100.00
33404;BME280;19751;40.274;18.268;2022-11-06T06:44:53;100337.56;;;14.15;100.00
33404;BME280;19751;40.274;18.268;2022-11-06T06:47:19;100346.25;;;14.24;100.00
33404;BME280;19751;40.274;18.268;2022-11-06T06:49:45;100352.25;;;14.26;100.00
33404;BME280;19751;40.274;18.268;2022-11-06T06:52:11;100353.03;;;14.33;100.00
33404;BME280;19751;40.274;18.268;2022-11-06T06:54:37;100362.97;;;14.39;100.00
33404;BME280;19751;40.274;18.268;2022-11-06T06:57:03;100373.53;;;14.48;100.00
33404;BME280;19751;40.274;18.268;2022-11-06T06:59:29;100368.88;;;14.55;100.00
33404;BME280;19751;40.274;18.268;2022-11-06T07:01:55;100370.09;;;14.59;100.00
33404;BME280;19751;40.274;18.268;2022-11-06T07:04:22;100374.47;;;14.60;100.00
33404;BME280;19751;40.274;18.268;2022-11-06T07:06:48;100366.13;;;14.61;100.00
33404;BME280;19751;40.274;18.268;2022-11-06T07:09:13;100372.75;;;14.65;100.00
33404;BME280;19751;40.274;18.268;2022-11-06T07:11:41;100382.31;;;14.68;100.00
33404;BME280;19751;40.274;18.268;2022-11-06T07:14:08;100384.34;;;14.73;100.00
33404;BME280;19751;40.274;18.268;2022-11-06T07:16:35;100387.41;;;14.76;100.00
33404;BME280;19751;40.274;18.268;2022-11-06T07:19:00;100384.69;;;14.76;100.00
33404;BME280;19751;40.274;18.268;2022-11-06T07:21:26;100391.81;;;14.77;100.00
33404;BME280;19751;40.274;18.268;2022-11-06T07:23:51;100396.31;;;14.83;100.00
33404;BME280;19751;40.274;18.268;2022-11-06T07:26:17;100393.75;;;14.88;100.00
33404;BME280;19751;40.274;18.268;2022-11-06T07:28:42;100403.09;;;14.92;100.00
33404;BME280;19751;40.274;18.268;2022-11-06T07:31:08;100410.56;;;14.97;100.00
33404;BME280;19751;40.274;18.268;2022-11-06T07:33:39;100409.06;;;15.01;100.00
33404;BME280;19751;40.274;18.268;2022-11-06T07:36:12;100413.19;;;15.04;100.00
33404;BME280;19751;40.274;18.268;2022-11-06T07:38:40;100412.75;;;15.07;100.00
33404;BME280;19751;40.274;18.268;2022-11-06T07:41:08;100425.38;;;15.13;100.00
33404;BME280;19751;40.274;18.268;2022-11-06T07:43:34;100435.94;;;15.21;100.00
33404;BME280;19751;40.274;18.268;2022-11-06T07:46:02;100436.69;;;15.28;100.00
33404;BME280;19751;40.274;18.268;2022-11-06T07:48:28;100441.22;;;15.34;100.00
33404;BME280;19751;40.274;18.268;2022-11-06T07:50:54;100438.41;;;15.41;100.00
33404;BME280;19751;40.274;18.268;2022-11-06T07:53:20;100431.47;;;15.45;100.00
33404;BME280;19751;40.274;18.268;2022-11-06T07:55:53;100438.69;;;15.51;100.00
33404;BME280;19751;40.274;18.268;2022-11-06T07:58:20;100428.44;;;15.53;100.00
33404;BME280;19751;40.274;18.268;2022-11-06T08:00:47;100441.31;;;15.58;100.00
33404;BME280;19751;40.274;18.268;2022-11-06T08:03:12;100450.88;;;15.60;100.00
33404;BME280;19751;40.274;18.268;2022-11-06T08:05:38;100452.13;;;15.64;100.00
33404;BME280;19751;40.274;18.268;2022-11-06T08:08:05;100451.88;;;15.66;100.00
33404;BME280;19751;40.274;18.268;2022-11-06T08:10:31;100455.78;;;15.70;100.00
33404;BME280;19751;40.274;18.268;2022-11-06T08:12:58;100447.78;;;15.75;100.00
33404;BME280;19751;40.274;18.268;2022-11-06T08:15:24;100453.00;;;15.77;100.00
33404;BME280;19751;40.274;18.268;2022-11-06T08:17:50;100451.22;;;15.82;100.00
33404;BME280;19751;40.274;18.268;2022-11-06T08:20:15;100448.66;;;15.87;100.00
33404;BME280;19751;40.274;18.268;2022-11-06T08:22:41;100453.16;;;15.94;100.00
33404;BME280;19751;40.274;18.268;2022-11-06T08:25:07;100456.25;;;15.97;100.00
33404;BME280;19751;40.274;18.268;2022-11-06T08:27:33;100455.75;;;16.00;100.00
33404;BME280;19751;40.274;18.268;2022-11-06T08:29:58;100477.88;;;16.04;100.00
33404;BME280;19751;40.274;18.268;2022-11-06T08:32:24;100473.25;;;16.04;100.00
33404;BME280;19751;40.274;18.268;2022-11-06T08:34:49;100492.06;;;16.06;100.00
33404;BME280;19751;40.274;18.268;2022-11-06T08:37:15;100494.28;;;16.09;100.00
33404;BME280;19751;40.274;18.268;2022-11-06T08:39:41;100492.19;;;16.11;100.00
33404;BME280;19751;40.274;18.268;2022-11-06T08:42:06;100492.78;;;16.13;100.00
33404;BME280;19751;40.274;18.268;2022-11-06T08:44:32;100488.53;;;16.17;100.00
33404;BME280;19751;40.274;18.268;2022-11-06T08:46:57;100490.56;;;16.22;100.00
33404;BME280;19751;40.274;18.268;2022-11-06T08:49:23;100498.03;;;16.26;100.00
33404;BME280;19751;40.274;18.268;2022-11-06T08:51:48;100497.53;;;16.29;100.00
33404;BME280;19751;40.274;18.268;2022-11-06T08:54:14;100501.69;;;16.32;100.00
33404;BME280;19751;40.274;18.268;2022-11-06T08:56:39;100508.56;;;16.34;100.00
33404;BME280;19751;40.274;18.268;2022-11-06T08:59:05;100507.50;;;16.35;100.00
33404;BME280;19751;40.274;18.268;2022-11-06T09:01:30;100508.06;;;16.37;100.00
33404;BME280;19751;40.274;18.268;2022-11-06T09:03:56;100505.72;;;16.41;100.00
33404;BME280;19751;40.274;18.268;2022-11-06T09:06:21;100504.44;;;16.44;100.00
33404;BME280;19751;40.274;18.268;2022-11-06T09:08:47;100511.06;;;16.48;100.00
33404;BME280;19751;40.274;18.268;2022-11-06T09:11:12;100508.47;;;16.53;100.00
33404;BME280;19751;40.274;18.268;2022-11-06T09:13:38;100501.03;;;16.60;100.00
33404;BME280;19751;40.274;18.268;2022-11-06T09:16:04;100507.41;;;16.65;100.00
33404;BME280;19751;40.274;18.268;2022-11-06T09:18:30;100502.91;;;16.71;100.00
33404;BME280;19751;40.274;18.268;2022-11-06T09:20:56;100499.75;;;16.74;100.00
33404;BME280;19751;40.274;18.268;2022-11-06T09:23:22;100505.94;;;16.81;100.00
33404;BME280;19751;40.274;18.268;2022-11-06T09:25:48;100505.47;;;16.84;100.00
33404;BME280;19751;40.274;18.268;2022-11-06T09:28:14;100507.94;;;16.86;100.00
33404;BME280;19751;40.274;18.268;2022-11-06T09:30:39;100503.44;;;16.92;100.00
33404;BME280;19751;40.274;18.268;2022-11-06T09:33:05;100507.00;;;16.92;100.00
33404;BME280;19751;40.274;18.268;2022-11-06T09:35:32;100501.56;;;16.92;100.00
33404;BME280;19751;40.274;18.268;2022-11-06T09:38:11;100506.16;;;16.92;100.00
33404;BME280;19751;40.274;18.268;2022-11-06T09:40:54;100505.31;;;16.91;100.00
33404;BME280;19751;40.274;18.268;2022-11-06T09:45:50;100513.97;;;16.88;100.00
33404;BME280;19751;40.274;18.268;2022-11-06T09:51:15;100508.75;;;16.86;100.00
33404;BME280;19751;40.274;18.268;2022-11-06T09:56:33;100504.97;;;16.87;100.00
33404;BME280;19751;40.274;18.268;2022-11-06T09:59:03;100512.31;;;16.87;100.00
33404;BME280;19751;40.274;18.268;2022-11-06T10:01:59;100517.75;;;16.87;100.00
33404;BME280;19751;40.274;18.268;2022-11-06T10:04:43;100513.38;;;16.86;100.00
33404;BME280;19751;40.274;18.268;2022-11-06T10:07:28;100520.97;;;16.84;100.00
33404;BME280;19751;40.274;18.268;2022-11-06T10:09:55;100522.59;;;16.85;100.00
33404;BME280;19751;40.274;18.268;2022-11-06T10:15:29;100524.16;;;16.93;100.00
33404;BME280;19751;40.274;18.268;2022-11-06T10:21:51;100542.47;;;16.97;100.00
33404;BME280;19751;40.274;18.268;2022-11-06T10:23:58;100535.41;;;16.96;100.00
33404;BME280;19751;40.274;18.268;2022-11-06T10:26:37;100535.16;;;16.98;100.00
33404;BME280;19751;40.274;18.268;2022-11-06T10:34:43;100537.41;;;17.01;100.00
33404;BME280;19751;40.274;18.268;2022-11-06T10:37:25;100535.25;;;17.03;100.00
33404;BME280;19751;40.274;18.268;2022-11-06T10:39:53;100535.63;;;17.06;100.00
33404;BME280;19751;40.274;18.268;2022-11-06T10:42:23;100536.44;;;17.07;100.00
33404;BME280;19751;40.274;18.268;2022-11-06T10:44:59;100533.25;;;17.10;100.00
33404;BME280;19751;40.274;18.268;2022-11-06T10:47:30;100542.00;;;17.12;100.00
33404;BME280;19751;40.274;18.268;2022-11-06T10:50:00;100536.34;;;17.13;100.00
33404;BME280;19751;40.274;18.268;2022-11-06T10:57:58;100533.47;;;17.20;100.00
33404;BME280;19751;40.274;18.268;2022-11-06T11:00:26;100536.53;;;17.24;100.00
33404;BME280;19751;40.274;18.268;2022-11-06T11:02:55;100534.44;;;17.26;100.00
33404;BME280;19751;40.274;18.268;2022-11-06T11:05:22;100530.97;;;17.30;100.00
33404;BME280;19751;40.274;18.268;2022-11-06T11:07:49;100537.59;;;17.34;100.00
33404;BME280;19751;40.274;18.268;2022-11-06T11:10:33;100537.09;;;17.37;100.00
33404;BME280;19751;40.274;18.268;2022-11-06T11:13:01;100545.53;;;17.36;100.00
33404;BME280;19751;40.274;18.268;2022-11-06T11:15:44;100536.78;;;17.34;100.00
33404;BME280;19751;40.274;18.268;2022-11-06T11:20:38;100543.88;;;17.35;100.00
33404;BME280;19751;40.274;18.268;2022-11-06T11:23:21;100542.44;;;17.32;100.00
33404;BME280;19751;40.274;18.268;2022-11-06T11:25:53;100533.47;;;17.32;100.00
33404;BME280;19751;40.274;18.268;2022-11-06T11:28:31;100541.38;;;17.33;100.00
33404;BME280;19751;40.274;18.268;2022-11-06T11:31:12;100537.59;;;17.34;100.00
33404;BME280;19751;40.274;18.268;2022-11-06T11:33:50;100543.41;;;17.38;100.00
33404;BME280;19751;40.274;18.268;2022-11-06T11:36:17;100541.16;;;17.35;100.00
33404;BME280;19751;40.274;18.268;2022-11-06T11:38:42;100544.69;;;17.35;100.00
33404;BME280;19751;40.274;18.268;2022-11-06T11:44:05;100556.06;;;17.32;100.00
33404;BME280;19751;40.274;18.268;2022-11-06T11:46:32;100551.94;;;17.30;100.00
33404;BME280;19751;40.274;18.268;2022-11-06T11:48:58;100556.78;;;17.28;100.00
33404;BME280;19751;40.274;18.268;2022-11-06T11:53:56;100550.41;;;17.22;100.00
33404;BME280;19751;40.274;18.268;2022-11-06T11:56:24;100558.56;;;17.22;100.00
33404;BME280;19751;40.274;18.268;2022-11-06T11:58:53;100558.78;;;17.21;100.00
33404;BME280;19751;40.274;18.268;2022-11-06T12:01:35;100554.41;;;17.20;100.00
33404;BME280;19751;40.274;18.268;2022-11-06T12:04:15;100563.66;;;17.19;100.00
33404;BME280;19751;40.274;18.268;2022-11-06T12:07:02;100554.66;;;17.18;100.00
33404;BME280;19751;40.274;18.268;2022-11-06T12:09:32;100563.91;;;17.17;100.00
33404;BME280;19751;40.274;18.268;2022-11-06T12:12:04;100569.34;;;17.17;100.00
33404;BME280;19751;40.274;18.268;2022-11-06T12:14:32;100573.13;;;17.16;100.00
33404;BME280;19751;40.274;18.268;2022-11-06T12:17:20;100568.16;;;17.13;100.00
33404;BME280;19751;40.274;18.268;2022-11-06T12:19:52;100566.47;;;17.12;100.00
33404;BME280;19751;40.274;18.268;2022-11-06T12:22:26;100573.81;;;17.11;100.00
33404;BME280;19751;40.274;18.268;2022-11-06T12:25:09;100580.34;;;17.10;100.00
33404;BME280;19751;40.274;18.268;2022-11-06T12:27:40;100579.50;;;17.10;100.00
33404;BME280;19751;40.274;18.268;2022-11-06T12:30:11;100583.06;;;17.10;100.00
33404;BME280;19751;40.274;18.268;2022-11-06T12:35:32;100582.81;;;17.12;100.00
33404;BME280;19751;40.274;18.268;2022-11-06T12:46:04;100589.44;;;17.16;100.00
33404;BME280;19751;40.274;18.268;2022-11-06T13:02:06;100625.66;;;17.17;100.00
33404;BME280;19751;40.274;18.268;2022-11-06T13:04:40;100624.59;;;17.18;100.00
33404;BME280;19751;40.274;18.268;2022-11-06T13:15:39;100629.91;;;17.24;100.00
33404;BME280;19751;40.274;18.268;2022-11-06T13:18:36;100634.06;;;17.27;100.00
33404;BME280;19751;40.274;18.268;2022-11-06T13:21:22;100632.78;;;17.29;100.00
33404;BME280;19751;40.274;18.268;2022-11-06T13:23:57;100638.81;;;17.31;100.00
33404;BME280;19751;40.274;18.268;2022-11-06T13:26:36;100639.16;;;17.35;100.00
33404;BME280;19751;40.274;18.268;2022-11-06T13:29:09;100637.25;;;17.35;100.00
33404;BME280;19751;40.274;18.268;2022-11-06T13:31:41;100637.63;;;17.39;100.00
33404;BME280;19751;40.274;18.268;2022-11-06T13:34:20;100640.09;;;17.40;99.66
33404;BME280;19751;40.274;18.268;2022-11-06T13:36:47;100637.97;;;17.43;99.99
33404;BME280;19751;40.274;18.268;2022-11-06T13:39:26;100641.75;;;17.42;100.00
33404;BME280;19751;40.274;18.268;2022-11-06T13:41:54;100643.66;;;17.41;100.00
33404;BME280;19751;40.274;18.268;2022-11-06T13:44:21;100646.38;;;17.41;100.00
33404;BME280;19751;40.274;18.268;2022-11-06T13:52:46;100651.34;;;17.44;100.00
33404;BME280;19751;40.274;18.268;2022-11-06T13:55:22;100650.53;;;17.44;100.00
33404;BME280;19751;40.274;18.268;2022-11-06T14:06:13;100667.78;;;17.37;100.00
33404;BME280;19751;40.274;18.268;2022-11-06T14:08:43;100662.84;;;17.34;100.00
33404;BME280;19751;40.274;18.268;2022-11-06T14:11:16;100663.75;;;17.28;100.00
33404;BME280;19751;40.274;18.268;2022-11-06T14:16:31;100675.25;;;17.19;100.00
33404;BME280;19751;40.274;18.268;2022-11-06T14:19:02;100672.16;;;17.15;100.00
33404;BME280;19751;40.274;18.268;2022-11-06T14:24:19;100683.28;;;17.13;100.00
33404;BME280;19751;40.274;18.268;2022-11-06T14:26:51;100683.88;;;17.15;100.00
33404;BME280;19751;40.274;18.268;2022-11-06T14:32:31;100684.25;;;17.19;100.00
33404;BME280;19751;40.274;18.268;2022-11-06T14:40:11;100681.16;;;17.15;100.00
33404;BME280;19751;40.274;18.268;2022-11-06T14:42:43;100681.41;;;17.14;100.00
33404;BME280;19751;40.274;18.268;2022-11-06T14:45:16;100686.22;;;17.12;100.00
33404;BME280;19751;40.274;18.268;2022-11-06T14:50:37;100689.19;;;17.10;100.00
33404;BME280;19751;40.274;18.268;2022-11-06T14:53:19;100690.47;;;17.08;100.00
33404;BME280;19751;40.274;18.268;2022-11-06T14:56:02;100695.91;;;17.08;100.00
33404;BME280;19751;40.274;18.268;2022-11-06T14:58:47;100689.28;;;17.04;100.00
33404;BME280;19751;40.274;18.268;2022-11-06T15:01:25;100704.41;;;17.00;100.00